Flight Track Log - Related Links

Times and Time Zones

All times are in EDT time to prevent confusion due to time zone crossing. See the N682RW flight status page for this flight to view local times or setup timezone preferences in your user account.

Time Position Orientation Groundspeed Altitude Reporting Facility
EDT Latitude Longitude Course Direction KTS MPH feet Rate Location/Type
Wed 10:15:28 PM 32.8000 -97.3500 50° Northeast 161 185 1,800  Level Dallas / Fort Worth TRACON
Wed 10:17:22 PM 32.8750 -97.2428 50° Northeast 308 354 7,500 3,103 Climbing Fort Worth Center
Wed 10:18:22 PM 32.9333 -97.1611 50° Northeast 313 360 10,800 3,100 Climbing Fort Worth Center
Wed 10:19:22 PM 32.9872 -97.0617 57° Northeast 346 398 13,700 2,750 Climbing Fort Worth Center
Wed 10:20:22 PM 33.0433 -96.9550 58° Northeast 368 423 16,300 2,600 Climbing Fort Worth Center
Wed 10:21:22 PM 33.0950 -96.8356 63° Northeast 391 450 18,900 2,550 Climbing Fort Worth Center
Wed 10:22:22 PM 33.1406 -96.7236 64° Northeast 405 466 21,400 2,550 Climbing Fort Worth Center
Wed 10:23:22 PM 33.2022 -96.5842 62° Northeast 419 482 24,000 2,150 Climbing Fort Worth Center
Wed 10:24:22 PM 33.2597 -96.4569 62° Northeast 430 495 25,700 1,750 Climbing Fort Worth Center
Wed 10:25:22 PM 33.3150 -96.3222 64° Northeast 438 504 27,500 1,650 Climbing Fort Worth Center
Wed 10:26:22 PM 33.3703 -96.1897 63° Northeast 438 504 29,000 1,300 Climbing Fort Worth Center
Wed 10:27:22 PM 33.4378 -96.0544 59° Northeast 455 524 30,100 1,250 Climbing Fort Worth Center
Wed 10:28:22 PM 33.5178 -95.9336 52° Northeast 473 544 31,500 1,150 Climbing Fort Worth Center
Wed 10:29:22 PM 33.6125 -95.8322 42° Northeast 450 518 32,400 850 Climbing Fort Worth Center
Wed 10:30:22 PM 33.7219 -95.7403 35° Northeast 462 532 33,200 1,200 Climbing Fort Worth Center
Wed 10:31:22 PM 33.8272 -95.6483 36° Northeast 468 539 34,800 900 Climbing Fort Worth Center
Wed 10:32:22 PM 33.9322 -95.5561 36° Northeast 468 539 35,000 100 Climbing Fort Worth Center
Wed 10:33:22 PM 34.0372 -95.4611 37° Northeast 468 539 35,000  Level Fort Worth Center
Wed 10:34:22 PM 34.1461 -95.3633 37° Northeast 478 550 35,000  Level Fort Worth Center
Wed 10:35:22 PM 34.2531 -95.2653 37° Northeast 478 550 35,000  Level Fort Worth Center
Wed 10:36:22 PM 34.3600 -95.1694 36° Northeast 472 543 35,000  Level Fort Worth Center
Wed 10:37:22 PM 34.4667 -95.0711 37° Northeast 477 549 35,000  Level Fort Worth Center
Wed 10:39:32 PM 34.6814 -94.8753 37° Northeast 460 529 35,000  Level Memphis Center
Wed 10:40:32 PM 34.7808 -94.7844 37° Northeast 460 529 35,000  Level Memphis Center
Wed 10:41:32 PM 34.8906 -94.6839 37° Northeast 448 516 35,000  Level Memphis Center
Wed 10:42:32 PM 34.9856 -94.5922 38° Northeast 456 525 35,000  Level Memphis Center
Wed 10:43:32 PM 35.0850 -94.4933 39° Northeast 456 525 35,000  Level Memphis Center
Wed 10:44:32 PM 35.1881 -94.3992 37° Northeast 456 525 35,000  Level Memphis Center
Wed 10:45:32 PM 35.2850 -94.3047 38° Northeast 450 518 35,000  Level Memphis Center
Wed 10:46:32 PM 35.3858 -94.2153 36° Northeast 450 518 35,000  Level Memphis Center
Wed 10:47:32 PM 35.4847 -94.1153 39° Northeast 455 524 35,000  Level Memphis Center
Wed 10:48:32 PM 35.5897 -94.0206 36° Northeast 455 524 35,000  Level Memphis Center
Wed 10:49:32 PM 35.6928 -93.9228 38° Northeast 455 524 35,000  Level Memphis Center
Wed 10:50:32 PM 35.7933 -93.8272 38° Northeast 455 524 35,000  Level Memphis Center
Wed 10:51:32 PM 35.8961 -93.7292 38° Northeast 455 524 35,000  Level Memphis Center
Wed 10:52:32 PM 35.9989 -93.6308 38° Northeast 455 524 35,000  Level Memphis Center
Wed 10:53:32 PM 36.0994 -93.5344 38° Northeast 455 524 35,000  Level Memphis Center
Wed 10:54:32 PM 36.1978 -93.4381 38° Northeast 449 517 35,000  Level Memphis Center
Wed 10:55:32 PM 36.3003 -93.3417 37° Northeast 455 524 35,000  Level Memphis Center
Wed 10:58:04 PM 36.5625 -93.0825 38° Northeast 465 535 35,000  Level Kansas City Center
Wed 10:59:06 PM 36.6647 -92.9833 38° Northeast 466 536 35,000  Level Kansas City Center
Wed 11:00:07 PM 36.7686 -92.8831 38° Northeast 468 539 35,000  Level Kansas City Center
Wed 11:01:08 PM 36.8711 -92.7808 39° Northeast 470 541 35,000  Level Kansas City Center
Wed 11:02:09 PM 36.9758 -92.6767 38° Northeast 474 545 35,000  Level Kansas City Center
Wed 11:03:10 PM 37.0814 -92.5714 38° Northeast 479 551 35,000  Level Kansas City Center
Wed 11:04:12 PM 37.1856 -92.4675 38° Northeast 480 552 35,000  Level Kansas City Center
Wed 11:05:13 PM 37.3111 -92.3411 39° Northeast 481 554 35,000  Level Kansas City Center
Wed 11:06:14 PM 37.4178 -92.2325 39° Northeast 489 563 35,000  Level Kansas City Center
Wed 11:07:15 PM 37.5219 -92.1272 39° Northeast 486 559 35,000  Level Kansas City Center
Wed 11:08:16 PM 37.6244 -92.0236 39° Northeast 479 551 35,000  Level Kansas City Center
Wed 11:09:17 PM 37.7269 -91.9192 39° Northeast 477 549 35,000  Level Kansas City Center
Wed 11:10:18 PM 37.8314 -91.8131 39° Northeast 482 555 35,000  Level Kansas City Center
Wed 11:11:19 PM 37.9325 -91.7031 41° Northeast 483 556 35,000  Level Kansas City Center
Wed 11:12:21 PM 38.0231 -91.5750 48° Northeast 488 562 35,000  Level Kansas City Center
Wed 11:13:22 PM 38.1119 -91.4528 47° Northeast 478 550 35,000  Level Kansas City Center
Wed 11:14:23 PM 38.2161 -91.3136 46° Northeast 475 547 35,000  Level Kansas City Center
Wed 11:15:24 PM 38.3081 -91.1922 46° Northeast 476 548 35,000  Level Kansas City Center
Wed 11:16:25 PM 38.3983 -91.0681 47° Northeast 478 550 35,000  Level Kansas City Center
Wed 11:17:26 PM 38.4853 -90.9386 49° Northeast 481 554 35,000  Level Kansas City Center
Wed 11:18:27 PM 38.5725 -90.8075 50° Northeast 482 555 35,000  Level Kansas City Center
Wed 11:19:28 PM 38.6667 -90.6686 49° Northeast 487 560 35,000  Level Kansas City Center
Wed 11:20:29 PM 38.7572 -90.5375 48° Northeast 491 565 35,000  Level Kansas City Center
Wed 11:21:31 PM 38.8481 -90.4075 48° Northeast 490 564 35,000  Level Kansas City Center
Wed 11:22:32 PM 38.9358 -90.2728 50° Northeast 491 565 35,000  Level Kansas City Center
Wed 11:23:33 PM 39.0225 -90.1364 51° Northeast 493 567 35,000  Level Kansas City Center
Wed 11:24:34 PM 39.1144 -90.0119 46° Northeast 492 566 35,000  Level Kansas City Center
Wed 11:25:35 PM 39.2319 -89.9375 26° Northeast 475 547 35,000  Level Kansas City Center
Wed 11:26:36 PM 39.3461 -89.8556 29° Northeast 471 542 35,000  Level Kansas City Center
Wed 11:27:37 PM 39.4603 -89.7697 30° Northeast 473 544 35,000 -492 Level Kansas City Center
Wed 11:28:38 PM 39.5736 -89.6853 30° Northeast 473 544 34,000 -1,328 Descending Kansas City Center
Wed 11:29:39 PM 39.7103 -89.5814 30° Northeast 474 545 32,300 -1,707 Descending Kansas City Center
Wed 11:30:41 PM 39.8314 -89.4933 29° Northeast 482 555 30,500 -1,851 Descending Kansas City Center
Wed 11:31:13 PM 39.8761 -89.4606 29° Northeast 480 552 29,400 -1,677 Descending Chicago Center
Wed 11:32:14 PM 39.9906 -89.3731 30° Northeast 479 551 27,900 -1,600 Descending Chicago Center
Wed 11:32:43 PM 40.0608 -89.3203 30° Northeast 479 551 27,000 -1,600 Descending Kansas City Center
Wed 11:33:44 PM 40.1742 -89.2339 30° Northeast 476 548 25,500 -1,484 Descending Kansas City Center
Wed 11:34:16 PM 40.2414 -89.1819 31° Northeast 479 551 24,700 -1,677 Descending Chicago Center
Wed 11:35:17 PM 40.3544 -89.0958 30° Northeast 473 544 22,900 -1,918 Descending Chicago Center
Wed 11:36:18 PM 40.4564 -89.0175 30° Northeast 434 499 20,800 -1,869 Descending Chicago Center
Wed 11:37:19 PM 40.5497 -88.9447 31° Northeast 397 457 19,100 -1,967 Descending Chicago Center
Wed 11:38:20 PM 40.6383 -88.8761 30° Northeast 375 432 16,800 -1,967 Descending Chicago Center
Wed 11:39:21 PM 40.7186 -88.8131 31° Northeast 359 413 15,100 -1,686 Descending Chicago Center
Wed 11:40:21 PM 40.8025 -88.7503 30° Northeast 349 402 13,400 -1,289 Descending Chicago Center
Wed 11:41:22 PM 40.9047 -88.6836 26° Northeast 343 395 12,500 -1,230 Descending Chicago Center
Wed 11:42:23 PM 40.9919 -88.6369 22° Northeast 340 391 10,900 -1,377 Descending Chicago Center
Wed 11:43:24 PM 41.0703 -88.5922 23° Northeast 312 359 9,700 -1,328 Descending Chicago Center
Wed 11:44:25 PM 41.1433 -88.5489 24° Northeast 295 339 8,200 -1,377 Descending Chicago Center
Wed 11:45:26 PM 41.2156 -88.5078 23° Northeast 283 326 6,900 -1,091 Descending Chicago Center
Wed 11:46:26 PM 41.2872 -88.4656 24° Northeast 282 325 6,000 -446 Descending Chicago Center
Wed 11:47:27 PM 41.3325 -88.3792 55° Northeast 284 327 6,000  Level Chicago Center
Wed 11:48:28 PM 41.3758 -88.2917 57° Northeast 286 329 6,000  Level Chicago Center
Wed 11:49:29 PM 41.4228 -88.2053 54° Northeast 286 329 6,000 -645 Level Chicago Center
Wed 11:50:29 PM 41.4808 -88.1328 43° Northeast 282 325 4,700 -992 Descending Chicago Center
Wed 11:51:30 PM 41.5383 -88.0628 42° Northeast 278 320 4,000 -344 Descending Chicago Center
Wed 11:52:31 PM 41.5861 -88.0044 42° Northeast 242 278 4,000  Level Chicago Center
Wed 11:53:31 PM 41.6325 -87.9453 44° Northeast 234 269 4,000 -248 Level Chicago Center
Wed 11:54:32 PM 41.6756 -87.8908 43° Northeast 226 260 3,500 -832 Descending Chicago Center
Wed 11:55:12 PM 41.7000 -87.8500 51° Northeast 181 208 2,600 -1,020 Descending Chicago TRACON
Wed 11:56:12 PM 41.7333 -87.8167 37° Northeast 156 180 1,800 -750 Descending Chicago TRACON
Wed 11:57:12 PM 41.7667 -87.7833 37° Northeast 139 160 1,100 -700 Descending Chicago TRACON
Wed 11:59:00 PM 41.7833 -87.7500 42° Northeast  Level FlightAware Approximate

Login

Don't have an account? Register now (free) for customized features, flight alerts, and more!